Satanta, KS

7:28 AM CDT en Marzo 23, 2017 (GMT -0500)
Lobmeyer Seed Farms | | Change Station
Aviso en curso: High Wind Watch

Alt 2890 ft 37.74 °N, 100.85 °W | Updated 10 minutes ago

Muy nublado
Muy nublado
56.3 ° F
Sensación térmica 56.3 ° F
N
13.0
Viento Variable Viento desde Sur
Gusts 21.0 mph

Hoy
Alta -- | Baja -- ° F
--% Posibilidad de precipitaciones
Ayer
Alta -- | Baja -- ° F
Precip. -- pul
Presión 29.82 pul
Visibilidad 3.0 Millas
Nubes Despejado
Punto de rocío 54 ° F
Humedad 93%
Precipitaciones 0.00 pul
Espesor de la nieve No disponible.
7:42 AM 7:58 PM
Creciente menguante, 23% visible
METAR KLBL 231215Z 14007KT 3SM CLR 11/08 A2982 RMK AO1
Presión 29.82 pul
Visibilidad 3.0 Millas
Nubes Despejado
Punto de rocío 54 ° F
Humedad 93%
Precipitaciones 0.00 pul
Espesor de la nieve No disponible.
7:42 AM 7:58 PM
Creciente menguante, 23% visible
METAR KLBL 231215Z 14007KT 3SM CLR 11/08 A2982 RMK AO1

Get Your Daily Forecast Email!

Thanks for signing up!

Be on the lookout for a verification email in your inbox.

You'll start receiving severe weather alerts in your inbox..

×

10-Day Weather Forecast

Almanac

Astronomía

Mar. 23, 2017 Salida Puesta
Hora real
Crepúsculo civil
Crepúsculo náutico
Crepúsculo astronómico
Luna
Horas de luz
Horas de luz
Tomorrow will be .
, % of the Moon is Illuminated

Extremos de hoy

Máximos del estado Bajos del estado

Community

WunderPhotos

Upload Photos

1,962,540 ¡fotos cargadas!

WunderBlog® & News

Nearby

Calidad del aire

  Calidad del aire Índice AQ Contaminante
Not available.

Grosos de nieve

Estación Profundido Altura

Actividad de terremotos

Ciudad Distance Mag. Tiempo y dato
Magnitud mínima muestra es 2,5.

Actividad de terremotos

Ciudad Distance Mag. Tiempo y dato
Magnitud mínima muestra es 2,5.

Temperaturas de aguas costeras

Lugar Temperatura

Stations

Estaciones meteorológicas cercanas

Ubicación de la estación Temp. Vientos helados Punto de rocío Humedad Viento Precip. Alt Actualizado Tipo
                   

Watches & Warnings

High Wind Watch
Issued: 2:56 AM MDT Mar. 23, 2017 – National Weather Service

... High wind watch in effect from Friday morning through Friday
evening...

The National Weather Service in Dodge City has issued a high wind
watch, which is in effect from Friday morning through Friday
evening.

* Timing... Friday morning through Friday evening.

* Winds... north winds 30 to 50 mph with gusts 55-60 mph.

* Impacts... driving may be hazardous for high profile vehicles.

Precautionary/preparedness actions...

A high wind watch means there is the potential for a hazardous
high wind event. Sustained winds of at least 40 mph... or gusts of
58 mph or stronger may occur. Continue to monitor the latest
forecasts.